createdAt,value
2023-02-03T00:01:54.047Z,0.64
2023-02-03T00:04:21.167Z,0.57
2023-02-03T00:06:48.325Z,0.55
2023-02-03T00:09:15.783Z,0.40
2023-02-03T00:11:42.840Z,0.58
2023-02-03T00:14:09.983Z,0.60
2023-02-03T00:16:37.156Z,0.52
2023-02-03T00:19:04.271Z,0.56
2023-02-03T00:21:31.264Z,0.53
2023-02-03T00:23:58.252Z,0.47
2023-02-03T00:26:26.172Z,0.41
2023-02-03T00:28:53.195Z,0.46
2023-02-03T00:31:25.186Z,0.42
2023-02-03T00:33:57.596Z,0.48
2023-02-03T00:36:26.078Z,0.49
2023-02-03T00:38:53.883Z,0.59
2023-02-03T00:41:21.829Z,0.54
2023-02-03T00:43:49.704Z,0.58
2023-02-03T00:46:17.012Z,0.56
2023-02-03T00:48:44.319Z,0.55
2023-02-03T00:51:11.350Z,0.68
2023-02-03T00:53:38.404Z,0.76
2023-02-03T00:56:12.604Z,0.79
2023-02-03T00:58:43.076Z,0.71
2023-02-03T01:01:10.421Z,0.80
2023-02-03T01:03:37.971Z,0.70
2023-02-03T01:06:12.440Z,0.80
2023-02-03T01:08:39.524Z,0.69
2023-02-03T01:11:11.623Z,0.78
2023-02-03T01:13:39.397Z,0.92
2023-02-03T01:16:12.759Z,0.96
2023-02-03T01:18:40.428Z,0.91
2023-02-03T01:21:20.245Z,0.95
2023-02-03T01:23:47.330Z,0.99
2023-02-03T01:26:16.970Z,0.90
2023-02-03T01:28:44.147Z,0.86
2023-02-03T01:31:14.316Z,0.87
2023-02-03T01:33:42.020Z,0.90
2023-02-03T01:36:09.949Z,0.84
2023-02-03T01:38:38.317Z,0.87
2023-02-03T01:41:10.156Z,0.87
2023-02-03T01:43:40.006Z,0.97
2023-02-03T01:46:38.949Z,0.92
2023-02-03T01:49:19.279Z,0.91
2023-02-03T01:51:47.032Z,0.76
2023-02-03T01:54:29.790Z,0.75
2023-02-03T01:57:04.720Z,0.80
2023-02-03T01:59:34.647Z,0.94
2023-02-03T02:02:03.232Z,0.97
2023-02-03T02:04:50.090Z,0.87
2023-02-03T02:07:17.579Z,0.82
2023-02-03T02:09:46.083Z,0.94
2023-02-03T02:12:14.579Z,0.84
2023-02-03T02:14:43.279Z,0.86
2023-02-03T02:17:25.005Z,0.72
2023-02-03T02:20:06.558Z,0.76
2023-02-03T02:22:52.291Z,0.83
2023-02-03T02:25:25.189Z,0.62
2023-02-03T02:28:01.614Z,0.78
2023-02-03T02:30:37.365Z,0.80
2023-02-03T02:33:40.115Z,0.85
2023-02-03T02:36:16.468Z,0.82
2023-02-03T02:38:55.053Z,0.79
2023-02-03T02:41:31.188Z,0.89
2023-02-03T02:44:05.648Z,0.89
2023-02-03T02:46:43.876Z,0.97
2023-02-03T02:49:25.892Z,0.97
2023-02-03T02:51:54.001Z,1.10
2023-02-03T02:54:24.318Z,1.18
2023-02-03T02:57:02.825Z,1.17
2023-02-03T02:59:31.113Z,1.22
2023-02-03T03:01:58.156Z,1.25
2023-02-03T03:04:28.658Z,1.21
2023-02-03T03:07:08.516Z,1.30
2023-02-03T03:09:44.570Z,1.27
2023-02-03T03:12:21.275Z,1.22
2023-02-03T03:15:09.625Z,1.17
2023-02-03T03:17:52.055Z,1.28
2023-02-03T03:20:24.382Z,1.28
2023-02-03T03:22:59.537Z,1.33
2023-02-03T03:25:33.731Z,1.26
2023-02-03T03:28:05.056Z,1.27
2023-02-03T03:30:37.290Z,1.21
2023-02-03T03:33:05.848Z,1.23
2023-02-03T03:36:00.544Z,1.27
2023-02-03T03:38:37.840Z,1.34
2023-02-03T03:41:17.204Z,1.40
2023-02-03T03:43:47.413Z,1.33
2023-02-03T03:46:20.716Z,1.39
2023-02-03T03:48:56.793Z,1.52
2023-02-03T03:51:34.171Z,1.59
2023-02-03T03:54:07.473Z,1.63
2023-02-03T03:56:45.504Z,1.61
2023-02-03T03:59:16.148Z,1.46
2023-02-03T04:01:43.735Z,1.55
2023-02-03T04:04:12.027Z,1.62
2023-02-03T04:06:39.958Z,1.67
2023-02-03T04:09:07.457Z,1.73
2023-02-03T04:11:53.034Z,1.80
2023-02-03T04:14:20.124Z,1.74
2023-02-03T04:16:47.167Z,1.71
2023-02-03T04:19:14.256Z,1.77
2023-02-03T04:21:41.288Z,1.90
2023-02-03T04:24:08.402Z,1.93
2023-02-03T04:26:35.425Z,1.83
2023-02-03T04:29:03.013Z,1.93
2023-02-03T04:31:30.195Z,1.95
2023-02-03T04:33:57.229Z,1.92
2023-02-03T04:36:24.217Z,1.78
2023-02-03T04:38:51.395Z,1.90
2023-02-03T04:41:18.705Z,1.72
2023-02-03T04:43:45.709Z,1.75
2023-02-03T04:46:12.839Z,1.79
2023-02-03T04:48:40.065Z,1.89
2023-02-03T04:51:09.099Z,1.91
2023-02-03T04:53:36.516Z,2.02
2023-02-03T04:56:03.848Z,2.11
2023-02-03T04:58:30.953Z,2.04
2023-02-03T05:00:57.974Z,2.02
2023-02-03T05:03:26.203Z,2.06
2023-02-03T05:05:57.067Z,2.12
2023-02-03T05:08:24.506Z,2.11
2023-02-03T05:10:51.653Z,2.02
2023-02-03T05:13:18.722Z,1.97
2023-02-03T05:15:45.707Z,1.97
2023-02-03T05:18:12.793Z,2.04
2023-02-03T05:20:39.845Z,2.11
2023-02-03T05:23:06.917Z,2.07
2023-02-03T05:25:33.960Z,2.12
2023-02-03T05:28:01.210Z,2.18
2023-02-03T05:30:28.560Z,2.21
2023-02-03T05:32:55.839Z,2.29
2023-02-03T05:35:22.866Z,2.28
2023-02-03T05:37:49.880Z,2.27
2023-02-03T05:40:35.782Z,2.28
2023-02-03T05:43:02.841Z,2.33
2023-02-03T05:45:30.100Z,2.29
2023-02-03T05:47:57.140Z,2.31
2023-02-03T05:50:24.612Z,2.21
2023-02-03T05:52:51.715Z,2.07
2023-02-03T05:55:18.771Z,1.93
2023-02-03T05:57:45.795Z,2.09
2023-02-03T06:00:13.661Z,2.10
2023-02-03T06:02:40.841Z,2.12
2023-02-03T06:05:08.689Z,2.21
2023-02-03T06:07:35.922Z,2.30
2023-02-03T06:10:03.177Z,2.27
2023-02-03T06:12:30.418Z,2.35
2023-02-03T06:14:57.528Z,2.48
2023-02-03T06:17:25.313Z,2.46
2023-02-03T06:19:52.516Z,2.42
2023-02-03T06:22:19.552Z,2.46
2023-02-03T06:24:48.175Z,2.49
2023-02-03T06:27:15.677Z,2.59
2023-02-03T06:29:43.144Z,2.62
2023-02-03T06:32:10.243Z,2.58
2023-02-03T06:34:37.246Z,2.58
2023-02-03T06:37:04.412Z,2.59
2023-02-03T06:39:31.551Z,2.61
2023-02-03T06:41:58.746Z,2.71
2023-02-03T06:44:26.253Z,2.80
2023-02-03T06:46:53.322Z,2.85
2023-02-03T06:49:20.427Z,2.80
2023-02-03T06:51:47.512Z,2.80
2023-02-03T06:54:15.050Z,2.83
2023-02-03T06:56:42.062Z,2.80
2023-02-03T06:59:10.256Z,2.82
2023-02-03T07:01:38.002Z,2.71
2023-02-03T07:04:05.319Z,2.72
2023-02-03T07:06:34.197Z,2.71
2023-02-03T07:09:03.472Z,2.64
2023-02-03T07:11:31.017Z,2.65
2023-02-03T07:13:58.672Z,2.61
2023-02-03T07:16:27.517Z,2.53
2023-02-03T07:18:54.674Z,2.46
2023-02-03T07:21:21.682Z,2.53
2023-02-03T07:23:49.749Z,2.54
2023-02-03T07:26:17.915Z,2.54
2023-02-03T07:28:45.009Z,2.53
2023-02-03T07:31:12.217Z,2.51
2023-02-03T07:33:39.674Z,2.52
2023-02-03T07:36:07.677Z,2.64
2023-02-03T07:38:34.712Z,2.57
2023-02-03T07:41:01.758Z,2.55
2023-02-03T07:43:28.880Z,2.60
2023-02-03T07:45:55.953Z,2.60
2023-02-03T07:48:23.081Z,2.76
2023-02-03T07:50:50.979Z,2.86
2023-02-03T07:53:17.957Z,2.88
2023-02-03T07:55:45.406Z,2.82
2023-02-03T07:58:12.573Z,2.77
2023-02-03T08:00:39.568Z,2.83
2023-02-03T08:03:06.715Z,2.93
2023-02-03T08:05:33.766Z,3.03
2023-02-03T08:08:00.913Z,3.04
2023-02-03T08:10:28.224Z,2.97
2023-02-03T08:12:56.224Z,2.97
2023-02-03T08:15:23.361Z,3.02
2023-02-03T08:17:50.822Z,2.98
2023-02-03T08:20:18.154Z,3.04
2023-02-03T08:22:45.461Z,3.15
2023-02-03T08:25:12.968Z,3.16
2023-02-03T08:27:41.029Z,3.10
2023-02-03T08:30:11.593Z,3.20
2023-02-03T08:32:38.682Z,3.19
2023-02-03T08:37:50.504Z,3.08
2023-02-03T08:40:18.210Z,3.01
2023-02-03T08:42:45.372Z,3.10
2023-02-03T08:45:12.587Z,3.05
2023-02-03T08:47:39.585Z,2.97
2023-02-03T08:50:08.691Z,2.86
2023-02-03T08:52:35.980Z,2.91
2023-02-03T08:55:03.705Z,2.93
2023-02-03T08:57:36.130Z,2.93
2023-02-03T09:00:07.462Z,2.93
2023-02-03T09:02:34.835Z,3.10
2023-02-03T09:05:02.239Z,3.08
2023-02-03T09:07:29.961Z,2.89
2023-02-03T09:09:57.058Z,2.95
2023-02-03T09:12:24.175Z,2.96
2023-02-03T09:14:51.447Z,2.96
2023-02-03T09:17:18.534Z,3.11
2023-02-03T09:19:45.612Z,3.19
2023-02-03T09:22:13.564Z,3.14
2023-02-03T09:24:40.864Z,3.33
2023-02-03T09:27:08.115Z,3.45
2023-02-03T09:29:35.223Z,3.40
2023-02-03T09:32:07.270Z,3.36
2023-02-03T09:34:34.590Z,3.35
2023-02-03T09:37:02.054Z,3.47
2023-02-03T09:39:29.044Z,3.41
2023-02-03T09:42:14.909Z,3.43
2023-02-03T09:44:50.674Z,3.38
2023-02-03T09:47:26.265Z,3.49
2023-02-03T09:50:02.034Z,3.57
2023-02-03T09:52:37.388Z,3.53
2023-02-03T09:55:32.215Z,3.63
2023-02-03T09:58:12.083Z,3.58
2023-02-03T10:00:43.815Z,3.55
2023-02-03T10:03:26.363Z,3.45
2023-02-03T10:05:58.175Z,3.43
2023-02-03T10:08:49.900Z,3.30
2023-02-03T10:11:35.054Z,3.46
2023-02-03T10:14:14.664Z,3.59
2023-02-03T10:16:53.589Z,3.53
2023-02-03T10:19:27.161Z,3.43
2023-02-03T10:22:00.294Z,3.49
2023-02-03T10:24:40.539Z,3.55
2023-02-03T10:27:18.589Z,3.80
2023-02-03T10:29:55.377Z,3.70
2023-02-03T10:32:26.469Z,3.59
2023-02-03T10:34:53.713Z,3.58
2023-02-03T10:37:35.262Z,3.43
2023-02-03T10:40:17.332Z,3.45
2023-02-03T10:43:07.423Z,3.60
2023-02-03T10:45:38.609Z,3.71
2023-02-03T10:48:11.472Z,3.60
2023-02-03T10:50:44.529Z,3.73
2023-02-03T10:53:25.668Z,3.80
2023-02-03T10:56:03.918Z,3.92
2023-02-03T10:58:34.266Z,3.91
2023-02-03T11:01:12.267Z,4.01
2023-02-03T11:03:44.879Z,4.09
2023-02-03T11:06:17.311Z,3.89
2023-02-03T11:08:47.463Z,3.97
2023-02-03T11:11:24.545Z,4.03
2023-02-03T11:14:04.085Z,4.23
2023-02-03T11:16:33.636Z,4.31
2023-02-03T11:19:22.119Z,4.15
2023-02-03T11:21:52.427Z,4.29
2023-02-03T11:24:19.396Z,4.27
2023-02-03T11:27:17.169Z,4.41
2023-02-03T11:29:47.935Z,4.37
2023-02-03T11:32:24.095Z,4.35
2023-02-03T11:35:02.776Z,4.31
2023-02-03T11:37:42.136Z,4.23
2023-02-03T11:40:11.085Z,4.47
2023-02-03T11:42:44.244Z,4.55
2023-02-03T11:45:16.822Z,4.41
2023-02-03T11:48:16.038Z,4.23
2023-02-03T11:50:43.126Z,4.29
2023-02-03T11:53:13.483Z,4.21
2023-02-03T11:55:58.627Z,4.07
2023-02-03T11:58:40.507Z,3.88
2023-02-03T12:01:31.589Z,3.75
2023-02-03T12:04:23.491Z,3.70
2023-02-03T12:06:50.655Z,3.72
2023-02-03T12:09:29.582Z,3.89
2023-02-03T12:12:05.668Z,3.90
2023-02-03T12:15:03.708Z,3.75
2023-02-03T12:17:49.227Z,3.63
2023-02-03T12:20:31.987Z,3.73
2023-02-03T12:23:51.378Z,3.68
2023-02-03T12:26:26.243Z,3.69
2023-02-03T12:29:09.169Z,3.80
2023-02-03T12:31:41.213Z,3.88
2023-02-03T12:34:16.083Z,3.85
2023-02-03T12:36:49.771Z,3.82
2023-02-03T12:39:39.596Z,3.69
2023-02-03T12:42:15.684Z,3.76
2023-02-03T12:44:46.956Z,3.39
2023-02-03T12:47:23.174Z,3.37
2023-02-03T12:50:40.904Z,3.53
2023-02-03T12:53:24.856Z,3.54
2023-02-03T12:56:11.156Z,3.44
2023-02-03T12:59:01.299Z,3.35
2023-02-03T13:01:46.143Z,3.41
2023-02-03T13:04:36.484Z,3.31
2023-02-03T13:07:36.475Z,3.11
2023-02-03T13:10:14.863Z,2.97
2023-02-03T13:12:46.255Z,3.03
2023-02-03T13:15:13.252Z,2.90
2023-02-03T13:18:01.476Z,2.90
2023-02-03T13:20:31.934Z,2.91
2023-02-03T13:22:59.044Z,2.88
2023-02-03T13:25:41.854Z,2.89
2023-02-03T13:28:21.245Z,2.96
2023-02-03T13:31:10.325Z,2.91
2023-02-03T13:34:10.306Z,2.81
2023-02-03T13:37:14.426Z,2.84
2023-02-03T13:39:59.687Z,2.74
2023-02-03T13:42:32.837Z,2.75
2023-02-03T13:45:12.049Z,2.80
2023-02-03T13:47:40.249Z,2.75
2023-02-03T13:50:20.564Z,2.64
2023-02-03T13:53:28.193Z,2.48
2023-02-03T13:55:59.766Z,2.55
2023-02-03T13:58:32.437Z,2.69
2023-02-03T14:01:04.792Z,2.55
2023-02-03T14:03:32.525Z,2.69
2023-02-03T14:06:01.499Z,2.77
2023-02-03T14:08:28.523Z,2.86
2023-02-03T14:11:33.001Z,2.89
2023-02-03T14:14:12.371Z,2.84
2023-02-03T14:16:41.329Z,2.75
2023-02-03T14:19:10.676Z,2.73
2023-02-03T14:21:46.094Z,2.69
2023-02-03T14:24:14.403Z,2.61
2023-02-03T14:26:45.431Z,2.55
2023-02-03T14:29:38.798Z,2.47
2023-02-03T14:32:08.758Z,2.42
2023-02-03T14:34:40.630Z,2.56
2023-02-03T14:37:29.693Z,2.67
2023-02-03T14:40:27.772Z,2.64
2023-02-03T14:43:12.370Z,2.66
2023-02-03T14:46:16.866Z,2.54
2023-02-03T14:48:55.708Z,2.53
2023-02-03T14:51:31.446Z,2.57
2023-02-03T14:54:01.568Z,2.52
2023-02-03T14:56:31.322Z,2.43
2023-02-03T14:59:04.288Z,2.29
2023-02-03T15:01:37.281Z,2.42
2023-02-03T15:04:13.491Z,2.50
2023-02-03T15:06:46.732Z,2.51
2023-02-03T15:09:52.510Z,2.44
2023-02-03T15:12:23.537Z,2.36
2023-02-03T15:14:50.748Z,2.27
2023-02-03T15:17:27.732Z,2.23
2023-02-03T15:19:54.932Z,2.16
2023-02-03T15:22:30.155Z,2.23
2023-02-03T15:24:59.946Z,2.29
2023-02-03T15:32:12.863Z,2.28
2023-02-03T15:34:43.186Z,2.47
2023-02-03T15:37:32.634Z,2.57
2023-02-03T15:40:04.548Z,2.64
2023-02-03T15:42:58.150Z,2.69
2023-02-03T15:45:54.788Z,2.71
2023-02-03T15:48:31.396Z,2.83
2023-02-03T15:51:11.245Z,2.87
2023-02-03T15:53:56.481Z,2.75
2023-02-03T15:56:43.628Z,2.68
2023-02-03T15:59:22.903Z,2.82
2023-02-03T16:01:50.386Z,2.68
2023-02-03T16:04:18.222Z,2.83
2023-02-03T16:06:50.467Z,2.93
2023-02-03T16:09:26.646Z,3.00
2023-02-03T16:12:07.459Z,3.04
2023-02-03T16:14:36.519Z,3.03
2023-02-03T16:17:06.279Z,3.04
2023-02-03T16:19:38.249Z,2.92
2023-02-03T16:22:25.604Z,2.98
2023-02-03T16:24:52.625Z,2.97
2023-02-03T16:27:25.643Z,2.96
2023-02-03T16:30:11.897Z,2.97
2023-02-03T16:32:57.892Z,3.01
2023-02-03T16:35:43.428Z,3.05
2023-02-03T16:38:36.303Z,3.09
2023-02-03T16:41:29.377Z,2.74
2023-02-03T16:44:14.508Z,2.87
2023-02-03T16:47:00.837Z,2.80
2023-02-03T16:49:46.689Z,2.78
2023-02-03T16:52:13.677Z,2.87
2023-02-03T16:54:40.824Z,2.93
2023-02-03T16:57:07.807Z,2.91
2023-02-03T16:59:34.969Z,2.82
2023-02-03T17:02:02.172Z,2.95
2023-02-03T17:04:29.183Z,2.94
2023-02-03T17:06:56.204Z,2.97
2023-02-03T17:09:25.127Z,3.03
2023-02-03T17:11:52.228Z,2.91
2023-02-03T17:14:19.228Z,2.87
2023-02-03T17:16:46.416Z,2.97
2023-02-03T17:19:13.486Z,2.89
2023-02-03T17:21:40.557Z,2.86
2023-02-03T17:24:07.950Z,2.97
2023-02-03T17:26:35.446Z,2.94
2023-02-03T17:29:03.785Z,2.83
2023-02-03T17:31:32.078Z,2.92
2023-02-03T17:34:00.683Z,2.87
2023-02-03T17:36:27.795Z,2.82
2023-02-03T17:55:24.217Z,2.97
2023-02-03T17:57:51.604Z,3.01
2023-02-03T18:00:19.162Z,3.02
2023-02-03T18:02:50.018Z,3.00
2023-02-03T18:05:17.273Z,3.04
2023-02-03T18:07:44.910Z,3.10
2023-02-03T18:10:11.992Z,3.05
2023-02-03T18:12:39.883Z,2.92
2023-02-03T18:15:07.195Z,2.97
2023-02-03T18:17:34.217Z,2.87
2023-02-03T18:20:02.548Z,2.91
2023-02-03T18:22:30.467Z,2.97
2023-02-03T18:24:57.469Z,3.03
2023-02-03T18:27:24.505Z,3.05
2023-02-03T18:29:51.897Z,2.93
2023-02-03T18:32:20.048Z,2.91
2023-02-03T18:34:47.162Z,3.01
2023-02-03T18:37:14.171Z,3.06
2023-02-03T18:39:41.168Z,3.05
2023-02-03T18:42:08.356Z,3.05
2023-02-03T18:44:35.776Z,3.00
2023-02-03T18:47:07.131Z,2.96
2023-02-03T18:49:36.177Z,3.02
2023-02-03T18:52:04.740Z,3.04
2023-02-03T18:54:31.920Z,2.91
2023-02-03T18:57:00.518Z,2.94
2023-02-03T18:59:28.071Z,2.98
2023-02-03T19:01:55.102Z,2.88
2023-02-03T19:04:22.772Z,2.93
2023-02-03T19:06:50.331Z,2.95
2023-02-03T19:09:19.371Z,3.04
2023-02-03T19:11:46.512Z,3.03
2023-02-03T19:14:25.914Z,3.02
2023-02-03T19:16:53.471Z,2.98
2023-02-03T19:19:20.603Z,2.95
2023-02-03T19:21:48.851Z,3.04
2023-02-03T19:24:16.672Z,3.08
2023-02-03T19:26:43.760Z,3.10
2023-02-03T19:29:11.468Z,2.89
2023-02-03T19:31:39.106Z,2.95
2023-02-03T19:34:06.203Z,3.08
2023-02-03T19:36:33.164Z,3.14
2023-02-03T19:39:00.134Z,3.16
2023-02-03T19:41:27.715Z,3.08
2023-02-03T19:43:54.787Z,3.06
2023-02-03T19:46:22.345Z,3.10
2023-02-03T19:48:50.470Z,3.02
2023-02-03T19:51:17.687Z,3.02
2023-02-03T19:53:44.747Z,3.08
2023-02-03T19:56:12.355Z,3.04
2023-02-03T19:58:39.462Z,3.05
2023-02-03T20:01:06.764Z,3.04
2023-02-03T20:03:33.901Z,3.02
2023-02-03T20:06:01.276Z,3.00
2023-02-03T20:08:28.429Z,2.97
2023-02-03T20:10:55.521Z,2.97
2023-02-03T20:13:22.551Z,2.90
2023-02-03T20:15:49.656Z,2.94
2023-02-03T20:18:16.735Z,3.00
2023-02-03T20:20:43.726Z,2.95
2023-02-03T20:23:10.696Z,2.96
2023-02-03T20:25:37.728Z,2.95
2023-02-03T20:28:05.433Z,2.89
2023-02-03T20:30:32.969Z,2.91
2023-02-03T20:33:00.297Z,2.82
2023-02-03T20:35:27.778Z,2.85
2023-02-03T20:37:55.080Z,2.81
2023-02-03T20:40:24.037Z,2.75
2023-02-03T20:42:52.991Z,2.67
2023-02-03T20:45:22.881Z,2.63
2023-02-03T20:47:50.613Z,2.48
2023-02-03T20:50:22.464Z,2.47
2023-02-03T20:52:52.294Z,2.44
2023-02-03T20:55:22.018Z,2.41
2023-02-03T20:57:51.637Z,2.38
2023-02-03T21:00:24.544Z,2.34
2023-02-03T21:03:10.729Z,2.39
2023-02-03T21:05:40.726Z,2.39
2023-02-03T21:08:15.622Z,2.39
2023-02-03T21:10:44.120Z,2.43
2023-02-03T21:13:29.216Z,2.40
2023-02-03T21:16:04.808Z,2.33
2023-02-03T21:18:37.635Z,2.38
2023-02-03T21:21:11.503Z,2.38
2023-02-03T21:23:40.416Z,2.39
2023-02-03T21:26:28.254Z,2.39
2023-02-03T21:29:00.824Z,2.44
2023-02-03T21:31:30.396Z,2.44
2023-02-03T21:33:59.806Z,2.43
2023-02-03T21:36:30.616Z,2.42
2023-02-03T21:39:01.795Z,2.46
2023-02-03T21:41:35.450Z,2.40
2023-02-03T21:44:02.834Z,2.42
2023-02-03T21:46:33.379Z,2.35
2023-02-03T21:49:04.278Z,2.42
2023-02-03T21:51:36.802Z,2.44
2023-02-03T21:54:22.772Z,2.44
2023-02-03T21:56:54.291Z,2.44
2023-02-03T21:59:29.706Z,2.46
2023-02-03T22:02:00.058Z,2.52
2023-02-03T22:04:28.747Z,2.53
2023-02-03T22:06:56.514Z,2.47
2023-02-03T22:09:25.510Z,2.51
2023-02-03T22:11:52.782Z,2.42
2023-02-03T22:14:23.316Z,2.52
2023-02-03T22:16:50.837Z,2.61
2023-02-03T22:19:17.917Z,2.61
2023-02-03T22:21:45.156Z,2.54
2023-02-03T22:24:12.257Z,2.52
2023-02-03T22:26:39.375Z,2.69
2023-02-03T22:29:06.445Z,2.78
2023-02-03T22:31:33.652Z,2.84
2023-02-03T22:34:00.793Z,2.80
2023-02-03T22:36:27.813Z,2.87
2023-02-03T22:38:54.805Z,2.89
2023-02-03T22:41:21.874Z,2.87
2023-02-03T22:43:48.950Z,2.88
2023-02-03T22:46:16.097Z,2.92
2023-02-03T22:48:43.147Z,2.89
2023-02-03T22:51:10.171Z,2.93
2023-02-03T22:53:39.497Z,2.96
2023-02-03T22:56:06.913Z,2.97
2023-02-03T22:58:34.076Z,2.98
2023-02-03T23:01:01.102Z,3.04
2023-02-03T23:03:32.154Z,3.05
2023-02-03T23:05:59.508Z,2.95
2023-02-03T23:08:26.523Z,2.97
2023-02-03T23:10:53.600Z,2.94
2023-02-03T23:13:20.594Z,2.81
2023-02-03T23:15:47.766Z,2.89
2023-02-03T23:18:14.939Z,2.93
2023-02-03T23:20:42.041Z,2.97
2023-02-03T23:23:09.142Z,3.05
2023-02-03T23:25:36.218Z,3.09
2023-02-03T23:28:03.315Z,3.11
2023-02-03T23:30:30.794Z,3.13
2023-02-03T23:32:58.007Z,3.12
2023-02-03T23:35:43.389Z,3.18
2023-02-03T23:38:10.416Z,3.23
2023-02-03T23:40:37.482Z,3.22
2023-02-03T23:43:04.501Z,3.20
2023-02-03T23:45:31.605Z,3.13
2023-02-03T23:47:58.736Z,3.12
2023-02-03T23:50:25.692Z,3.17
2023-02-03T23:52:52.847Z,3.19
2023-02-03T23:55:21.283Z,3.22
2023-02-03T23:57:48.328Z,3.24
